sensor_id;sensor_type;location;lat;lon;timestamp;P1;durP1;ratioP1;P2;durP2;ratioP2
48945;SDS011;34999;50.940;3.998;2023-06-10T00:01:35;6.90;;;6.30;;
48945;SDS011;34999;50.940;3.998;2023-06-10T00:04:05;11.67;;;6.97;;
48945;SDS011;34999;50.940;3.998;2023-06-10T00:06:34;8.23;;;6.87;;
48945;SDS011;34999;50.940;3.998;2023-06-10T00:09:03;7.50;;;6.80;;
48945;SDS011;34999;50.940;3.998;2023-06-10T00:11:34;7.53;;;6.87;;
48945;SDS011;34999;50.940;3.998;2023-06-10T00:14:02;7.70;;;6.67;;
48945;SDS011;34999;50.940;3.998;2023-06-10T00:16:31;7.60;;;6.80;;
48945;SDS011;34999;50.940;3.998;2023-06-10T00:19:00;7.47;;;6.60;;
48945;SDS011;34999;50.940;3.998;2023-06-10T00:21:32;7.80;;;7.10;;
48945;SDS011;34999;50.940;3.998;2023-06-10T00:24:04;8.60;;;7.17;;
48945;SDS011;34999;50.940;3.998;2023-06-10T00:26:33;10.87;;;6.70;;
48945;SDS011;34999;50.940;3.998;2023-06-10T00:29:01;7.70;;;6.77;;
48945;SDS011;34999;50.940;3.998;2023-06-10T00:31:29;8.67;;;6.70;;
48945;SDS011;34999;50.940;3.998;2023-06-10T00:33:58;7.60;;;7.00;;
48945;SDS011;34999;50.940;3.998;2023-06-10T00:36:26;11.13;;;7.30;;
48945;SDS011;34999;50.940;3.998;2023-06-10T00:38:56;11.10;;;7.33;;
48945;SDS011;34999;50.940;3.998;2023-06-10T00:41:24;7.80;;;7.07;;
48945;SDS011;34999;50.940;3.998;2023-06-10T00:43:53;10.40;;;7.43;;
48945;SDS011;34999;50.940;3.998;2023-06-10T00:46:22;8.00;;;7.40;;
48945;SDS011;34999;50.940;3.998;2023-06-10T00:56:16;7.80;;;7.17;;
48945;SDS011;34999;50.940;3.998;2023-06-10T00:58:45;8.33;;;7.30;;
48945;SDS011;34999;50.940;3.998;2023-06-10T01:01:14;7.93;;;7.13;;
48945;SDS011;34999;50.940;3.998;2023-06-10T01:03:43;8.63;;;7.90;;
48945;SDS011;34999;50.940;3.998;2023-06-10T01:06:14;7.50;;;6.83;;
48945;SDS011;34999;50.940;3.998;2023-06-10T01:08:49;7.37;;;6.73;;
48945;SDS011;34999;50.940;3.998;2023-06-10T01:11:28;8.10;;;7.40;;
48945;SDS011;34999;50.940;3.998;2023-06-10T01:14:00;10.27;;;7.27;;
48945;SDS011;34999;50.940;3.998;2023-06-10T01:16:28;7.97;;;7.30;;
48945;SDS011;34999;50.940;3.998;2023-06-10T01:18:56;10.40;;;7.60;;
48945;SDS011;34999;50.940;3.998;2023-06-10T01:21:28;14.63;;;7.70;;
48945;SDS011;34999;50.940;3.998;2023-06-10T01:24:00;8.90;;;7.60;;
48945;SDS011;34999;50.940;3.998;2023-06-10T01:26:30;9.13;;;7.43;;
48945;SDS011;34999;50.940;3.998;2023-06-10T01:29:03;8.13;;;7.33;;
48945;SDS011;34999;50.940;3.998;2023-06-10T01:31:36;8.97;;;8.07;;
48945;SDS011;34999;50.940;3.998;2023-06-10T01:34:10;8.37;;;7.77;;
48945;SDS011;34999;50.940;3.998;2023-06-10T01:36:43;11.67;;;8.23;;
48945;SDS011;34999;50.940;3.998;2023-06-10T01:42:55;8.63;;;7.83;;
48945;SDS011;34999;50.940;3.998;2023-06-10T01:48:12;8.27;;;7.50;;
48945;SDS011;34999;50.940;3.998;2023-06-10T01:50:41;12.47;;;8.67;;
48945;SDS011;34999;50.940;3.998;2023-06-10T01:53:11;8.07;;;7.40;;
48945;SDS011;34999;50.940;3.998;2023-06-10T01:55:39;16.50;;;7.77;;
48945;SDS011;34999;50.940;3.998;2023-06-10T01:58:08;8.70;;;7.77;;
48945;SDS011;34999;50.940;3.998;2023-06-10T02:00:36;9.47;;;8.47;;
48945;SDS011;34999;50.940;3.998;2023-06-10T02:03:05;8.47;;;7.77;;
48945;SDS011;34999;50.940;3.998;2023-06-10T02:05:33;8.87;;;8.10;;
48945;SDS011;34999;50.940;3.998;2023-06-10T02:08:02;11.60;;;8.40;;
48945;SDS011;34999;50.940;3.998;2023-06-10T02:10:31;10.67;;;8.30;;
48945;SDS011;34999;50.940;3.998;2023-06-10T02:13:00;9.73;;;8.80;;
48945;SDS011;34999;50.940;3.998;2023-06-10T02:15:28;8.83;;;8.07;;
48945;SDS011;34999;50.940;3.998;2023-06-10T02:17:57;11.23;;;8.60;;
48945;SDS011;34999;50.940;3.998;2023-06-10T02:20:25;9.20;;;8.40;;
48945;SDS011;34999;50.940;3.998;2023-06-10T02:22:53;9.90;;;8.90;;
48945;SDS011;34999;50.940;3.998;2023-06-10T02:25:22;9.47;;;8.60;;
48945;SDS011;34999;50.940;3.998;2023-06-10T02:27:52;9.43;;;8.43;;
48945;SDS011;34999;50.940;3.998;2023-06-10T02:30:20;9.57;;;8.77;;
48945;SDS011;34999;50.940;3.998;2023-06-10T02:32:48;9.30;;;8.50;;
48945;SDS011;34999;50.940;3.998;2023-06-10T02:35:17;14.87;;;8.50;;
48945;SDS011;34999;50.940;3.998;2023-06-10T02:37:45;9.17;;;8.37;;
48945;SDS011;34999;50.940;3.998;2023-06-10T02:40:13;9.70;;;8.80;;
48945;SDS011;34999;50.940;3.998;2023-06-10T02:42:42;9.50;;;8.70;;
48945;SDS011;34999;50.940;3.998;2023-06-10T02:45:11;9.80;;;8.80;;
48945;SDS011;34999;50.940;3.998;2023-06-10T02:47:41;10.23;;;9.20;;
48945;SDS011;34999;50.940;3.998;2023-06-10T02:53:50;9.93;;;9.03;;
48945;SDS011;34999;50.940;3.998;2023-06-10T02:56:18;9.57;;;8.67;;
48945;SDS011;34999;50.940;3.998;2023-06-10T02:58:46;10.27;;;9.37;;
48945;SDS011;34999;50.940;3.998;2023-06-10T03:01:16;10.57;;;9.60;;
48945;SDS011;34999;50.940;3.998;2023-06-10T03:03:45;10.70;;;9.80;;
48945;SDS011;34999;50.940;3.998;2023-06-10T03:06:17;14.83;;;9.80;;
48945;SDS011;34999;50.940;3.998;2023-06-10T03:08:45;10.13;;;9.10;;
48945;SDS011;34999;50.940;3.998;2023-06-10T03:11:14;10.50;;;9.50;;
48945;SDS011;34999;50.940;3.998;2023-06-10T03:13:42;10.77;;;9.67;;
48945;SDS011;34999;50.940;3.998;2023-06-10T03:16:10;11.50;;;10.30;;
48945;SDS011;34999;50.940;3.998;2023-06-10T03:18:40;10.50;;;9.50;;
48945;SDS011;34999;50.940;3.998;2023-06-10T03:21:09;13.17;;;9.67;;
48945;SDS011;34999;50.940;3.998;2023-06-10T03:23:37;10.77;;;9.83;;
48945;SDS011;34999;50.940;3.998;2023-06-10T03:26:06;10.10;;;9.30;;
48945;SDS011;34999;50.940;3.998;2023-06-10T03:28:34;11.43;;;10.07;;
48945;SDS011;34999;50.940;3.998;2023-06-10T03:31:03;12.27;;;9.57;;
48945;SDS011;34999;50.940;3.998;2023-06-10T03:33:31;11.67;;;9.90;;
48945;SDS011;34999;50.940;3.998;2023-06-10T03:36:01;13.63;;;10.63;;
48945;SDS011;34999;50.940;3.998;2023-06-10T03:38:30;11.57;;;10.53;;
48945;SDS011;34999;50.940;3.998;2023-06-10T03:40:58;10.53;;;9.53;;
48945;SDS011;34999;50.940;3.998;2023-06-10T03:43:26;11.07;;;10.07;;
48945;SDS011;34999;50.940;3.998;2023-06-10T03:45:55;11.57;;;10.37;;
48945;SDS011;34999;50.940;3.998;2023-06-10T03:48:23;11.17;;;10.10;;
48945;SDS011;34999;50.940;3.998;2023-06-10T03:50:51;11.03;;;9.87;;
48945;SDS011;34999;50.940;3.998;2023-06-10T03:53:21;11.57;;;10.40;;
48945;SDS011;34999;50.940;3.998;2023-06-10T03:55:49;11.90;;;10.70;;
48945;SDS011;34999;50.940;3.998;2023-06-10T03:58:17;12.00;;;10.90;;
48945;SDS011;34999;50.940;3.998;2023-06-10T04:00:46;11.90;;;10.33;;
48945;SDS011;34999;50.940;3.998;2023-06-10T04:03:16;11.13;;;10.13;;
48945;SDS011;34999;50.940;3.998;2023-06-10T04:05:44;11.93;;;10.73;;
48945;SDS011;34999;50.940;3.998;2023-06-10T04:08:12;11.70;;;10.60;;
48945;SDS011;34999;50.940;3.998;2023-06-10T04:10:42;12.23;;;10.87;;
48945;SDS011;34999;50.940;3.998;2023-06-10T04:13:10;12.63;;;10.60;;
48945;SDS011;34999;50.940;3.998;2023-06-10T04:15:39;11.90;;;10.70;;
48945;SDS011;34999;50.940;3.998;2023-06-10T04:18:08;13.27;;;11.23;;
48945;SDS011;34999;50.940;3.998;2023-06-10T04:20:36;11.73;;;10.53;;
48945;SDS011;34999;50.940;3.998;2023-06-10T04:23:04;12.53;;;11.00;;
48945;SDS011;34999;50.940;3.998;2023-06-10T04:25:33;12.33;;;10.83;;
48945;SDS011;34999;50.940;3.998;2023-06-10T04:28:03;12.27;;;10.50;;
48945;SDS011;34999;50.940;3.998;2023-06-10T04:30:31;10.97;;;9.53;;
48945;SDS011;34999;50.940;3.998;2023-06-10T04:33:00;11.77;;;10.67;;
48945;SDS011;34999;50.940;3.998;2023-06-10T04:35:28;11.87;;;10.10;;
48945;SDS011;34999;50.940;3.998;2023-06-10T04:37:56;13.10;;;10.40;;
48945;SDS011;34999;50.940;3.998;2023-06-10T04:40:25;11.77;;;10.57;;
48945;SDS011;34999;50.940;3.998;2023-06-10T04:42:53;13.30;;;10.70;;
48945;SDS011;34999;50.940;3.998;2023-06-10T04:45:23;11.10;;;9.97;;
48945;SDS011;34999;50.940;3.998;2023-06-10T04:47:52;12.73;;;10.77;;
48945;SDS011;34999;50.940;3.998;2023-06-10T04:50:22;10.97;;;9.87;;
48945;SDS011;34999;50.940;3.998;2023-06-10T04:52:50;13.07;;;10.43;;
48945;SDS011;34999;50.940;3.998;2023-06-10T04:55:18;10.53;;;9.13;;
48945;SDS011;34999;50.940;3.998;2023-06-10T04:57:48;11.47;;;9.83;;
48945;SDS011;34999;50.940;3.998;2023-06-10T05:00:17;11.10;;;9.93;;
48945;SDS011;34999;50.940;3.998;2023-06-10T05:02:48;15.23;;;10.97;;
48945;SDS011;34999;50.940;3.998;2023-06-10T05:05:18;12.93;;;9.70;;
48945;SDS011;34999;50.940;3.998;2023-06-10T05:07:46;10.47;;;9.57;;
48945;SDS011;34999;50.940;3.998;2023-06-10T05:10:14;11.43;;;10.33;;
48945;SDS011;34999;50.940;3.998;2023-06-10T05:12:43;12.87;;;9.77;;
48945;SDS011;34999;50.940;3.998;2023-06-10T05:15:11;12.20;;;9.43;;
48945;SDS011;34999;50.940;3.998;2023-06-10T05:17:40;12.13;;;9.90;;
48945;SDS011;34999;50.940;3.998;2023-06-10T05:20:10;10.37;;;9.37;;
48945;SDS011;34999;50.940;3.998;2023-06-10T05:22:40;12.80;;;9.80;;
48945;SDS011;34999;50.940;3.998;2023-06-10T05:25:08;11.90;;;9.60;;
48945;SDS011;34999;50.940;3.998;2023-06-10T05:27:37;11.87;;;9.83;;
48945;SDS011;34999;50.940;3.998;2023-06-10T05:30:09;12.23;;;9.97;;
48945;SDS011;34999;50.940;3.998;2023-06-10T05:32:38;11.83;;;9.17;;
48945;SDS011;34999;50.940;3.998;2023-06-10T05:35:06;10.90;;;9.40;;
48945;SDS011;34999;50.940;3.998;2023-06-10T05:37:37;10.70;;;9.70;;
48945;SDS011;34999;50.940;3.998;2023-06-10T05:40:06;10.20;;;9.17;;
48945;SDS011;34999;50.940;3.998;2023-06-10T05:42:35;12.57;;;10.13;;
48945;SDS011;34999;50.940;3.998;2023-06-10T05:45:03;12.57;;;10.00;;
48945;SDS011;34999;50.940;3.998;2023-06-10T05:47:34;10.43;;;9.43;;
48945;SDS011;34999;50.940;3.998;2023-06-10T05:50:02;11.13;;;9.43;;
48945;SDS011;34999;50.940;3.998;2023-06-10T05:52:33;10.83;;;9.53;;
48945;SDS011;34999;50.940;3.998;2023-06-10T05:55:03;11.40;;;9.90;;
48945;SDS011;34999;50.940;3.998;2023-06-10T05:57:32;10.20;;;9.20;;
48945;SDS011;34999;50.940;3.998;2023-06-10T06:00:01;11.00;;;9.90;;
48945;SDS011;34999;50.940;3.998;2023-06-10T06:02:31;11.47;;;9.73;;
48945;SDS011;34999;50.940;3.998;2023-06-10T06:04:59;11.83;;;9.43;;
48945;SDS011;34999;50.940;3.998;2023-06-10T06:07:27;10.70;;;9.43;;
48945;SDS011;34999;50.940;3.998;2023-06-10T06:09:56;10.50;;;9.50;;
48945;SDS011;34999;50.940;3.998;2023-06-10T06:12:26;11.17;;;10.00;;
48945;SDS011;34999;50.940;3.998;2023-06-10T06:14:54;11.27;;;9.50;;
48945;SDS011;34999;50.940;3.998;2023-06-10T06:17:22;10.98;;;9.73;;
48945;SDS011;34999;50.940;3.998;2023-06-10T06:19:50;11.03;;;8.97;;
48945;SDS011;34999;50.940;3.998;2023-06-10T06:22:19;11.37;;;9.10;;
48945;SDS011;34999;50.940;3.998;2023-06-10T06:24:48;11.27;;;8.83;;
48945;SDS011;34999;50.940;3.998;2023-06-10T06:27:17;10.03;;;8.80;;
48945;SDS011;34999;50.940;3.998;2023-06-10T06:29:47;9.37;;;8.57;;
48945;SDS011;34999;50.940;3.998;2023-06-10T06:32:16;12.53;;;9.47;;
48945;SDS011;34999;50.940;3.998;2023-06-10T06:34:44;10.53;;;9.17;;
48945;SDS011;34999;50.940;3.998;2023-06-10T06:37:12;10.80;;;9.67;;
48945;SDS011;34999;50.940;3.998;2023-06-10T06:39:40;10.07;;;9.07;;
48945;SDS011;34999;50.940;3.998;2023-06-10T06:42:09;9.70;;;8.80;;
48945;SDS011;34999;50.940;3.998;2023-06-10T06:44:37;9.13;;;8.23;;
48945;SDS011;34999;50.940;3.998;2023-06-10T06:54:28;12.23;;;8.67;;
48945;SDS011;34999;50.940;3.998;2023-06-10T06:56:57;10.17;;;8.90;;
48945;SDS011;34999;50.940;3.998;2023-06-10T06:59:25;11.00;;;8.87;;
48945;SDS011;34999;50.940;3.998;2023-06-10T07:16:36;10.23;;;8.60;;
48945;SDS011;34999;50.940;3.998;2023-06-10T07:19:05;11.00;;;8.57;;
48945;SDS011;34999;50.940;3.998;2023-06-10T07:21:33;10.67;;;8.00;;
48945;SDS011;34999;50.940;3.998;2023-06-10T07:24:02;8.23;;;7.53;;
48945;SDS011;34999;50.940;3.998;2023-06-10T07:26:31;11.03;;;8.13;;
48945;SDS011;34999;50.940;3.998;2023-06-10T07:28:59;9.77;;;7.83;;
48945;SDS011;34999;50.940;3.998;2023-06-10T07:31:28;11.97;;;8.07;;
48945;SDS011;34999;50.940;3.998;2023-06-10T07:33:58;10.10;;;8.30;;
48945;SDS011;34999;50.940;3.998;2023-06-10T07:36:27;9.30;;;8.40;;
48945;SDS011;34999;50.940;3.998;2023-06-10T07:38:56;9.07;;;7.80;;
48945;SDS011;34999;50.940;3.998;2023-06-10T07:41:24;8.73;;;7.93;;
48945;SDS011;34999;50.940;3.998;2023-06-10T07:43:52;11.17;;;7.87;;
48945;SDS011;34999;50.940;3.998;2023-06-10T07:46:23;8.97;;;7.83;;
48945;SDS011;34999;50.940;3.998;2023-06-10T07:48:54;8.63;;;7.87;;
48945;SDS011;34999;50.940;3.998;2023-06-10T07:51:23;8.27;;;7.57;;
48945;SDS011;34999;50.940;3.998;2023-06-10T07:53:52;8.30;;;7.43;;
48945;SDS011;34999;50.940;3.998;2023-06-10T07:56:20;8.83;;;7.53;;
48945;SDS011;34999;50.940;3.998;2023-06-10T07:58:48;10.37;;;7.60;;
48945;SDS011;34999;50.940;3.998;2023-06-10T08:01:17;12.47;;;7.17;;
48945;SDS011;34999;50.940;3.998;2023-06-10T08:03:45;8.50;;;7.70;;
48945;SDS011;34999;50.940;3.998;2023-06-10T08:06:14;8.53;;;7.00;;
48945;SDS011;34999;50.940;3.998;2023-06-10T08:08:45;11.03;;;7.90;;
48945;SDS011;34999;50.940;3.998;2023-06-10T08:11:13;10.50;;;6.77;;
48945;SDS011;34999;50.940;3.998;2023-06-10T08:13:42;9.13;;;6.93;;
48945;SDS011;34999;50.940;3.998;2023-06-10T08:19:51;7.80;;;6.67;;
48945;SDS011;34999;50.940;3.998;2023-06-10T08:26:01;7.87;;;7.07;;
48945;SDS011;34999;50.940;3.998;2023-06-10T08:28:30;8.07;;;6.60;;
48945;SDS011;34999;50.940;3.998;2023-06-10T08:30:58;8.00;;;7.20;;
48945;SDS011;34999;50.940;3.998;2023-06-10T08:33:26;7.43;;;6.70;;
48945;SDS011;34999;50.940;3.998;2023-06-10T08:35:55;7.43;;;6.45;;
48945;SDS011;34999;50.940;3.998;2023-06-10T08:38:23;7.40;;;6.68;;
48945;SDS011;34999;50.940;3.998;2023-06-10T08:40:51;7.25;;;6.63;;
48945;SDS011;34999;50.940;3.998;2023-06-10T08:43:29;6.93;;;6.35;;
48945;SDS011;34999;50.940;3.998;2023-06-10T08:46:01;6.35;;;5.95;;
48945;SDS011;34999;50.940;3.998;2023-06-10T08:48:30;9.68;;;6.20;;
48945;SDS011;34999;50.940;3.998;2023-06-10T08:51:02;6.95;;;6.30;;
48945;SDS011;34999;50.940;3.998;2023-06-10T08:53:32;6.53;;;5.93;;
48945;SDS011;34999;50.940;3.998;2023-06-10T08:59:47;6.57;;;5.97;;
48945;SDS011;34999;50.940;3.998;2023-06-10T09:05:57;6.28;;;5.68;;
48945;SDS011;34999;50.940;3.998;2023-06-10T09:08:25;6.80;;;5.50;;
48945;SDS011;34999;50.940;3.998;2023-06-10T09:10:54;6.45;;;5.40;;
48945;SDS011;34999;50.940;3.998;2023-06-10T09:13:22;6.65;;;5.97;;
48945;SDS011;34999;50.940;3.998;2023-06-10T09:15:52;6.63;;;6.13;;
48945;SDS011;34999;50.940;3.998;2023-06-10T09:18:22;6.18;;;5.68;;
48945;SDS011;34999;50.940;3.998;2023-06-10T09:20:51;6.13;;;5.55;;
48945;SDS011;34999;50.940;3.998;2023-06-10T09:23:19;6.93;;;5.30;;
48945;SDS011;34999;50.940;3.998;2023-06-10T09:25:55;6.18;;;5.70;;
48945;SDS011;34999;50.940;3.998;2023-06-10T09:28:25;8.52;;;6.13;;
48945;SDS011;34999;50.940;3.998;2023-06-10T09:31:04;6.53;;;5.55;;
48945;SDS011;34999;50.940;3.998;2023-06-10T09:37:15;6.22;;;5.45;;
48945;SDS011;34999;50.940;3.998;2023-06-10T09:40:01;6.35;;;5.80;;
48945;SDS011;34999;50.940;3.998;2023-06-10T09:46:17;6.07;;;5.40;;
48945;SDS011;34999;50.940;3.998;2023-06-10T09:48:47;5.55;;;5.15;;
48945;SDS011;34999;50.940;3.998;2023-06-10T09:54:59;8.52;;;5.80;;
48945;SDS011;34999;50.940;3.998;2023-06-10T09:57:30;8.77;;;5.30;;
48945;SDS011;34999;50.940;3.998;2023-06-10T10:00:04;5.95;;;5.55;;
48945;SDS011;34999;50.940;3.998;2023-06-10T10:02:38;6.43;;;5.88;;
48945;SDS011;34999;50.940;3.998;2023-06-10T10:05:14;6.15;;;5.65;;
48945;SDS011;34999;50.940;3.998;2023-06-10T10:07:43;5.38;;;5.03;;
48945;SDS011;34999;50.940;3.998;2023-06-10T10:10:12;5.82;;;5.15;;
48945;SDS011;34999;50.940;3.998;2023-06-10T10:12:42;7.03;;;4.65;;
48945;SDS011;34999;50.940;3.998;2023-06-10T10:15:13;5.40;;;5.10;;
48945;SDS011;34999;50.940;3.998;2023-06-10T10:17:49;5.43;;;4.93;;
48945;SDS011;34999;50.940;3.998;2023-06-10T10:20:24;5.13;;;4.72;;
48945;SDS011;34999;50.940;3.998;2023-06-10T10:22:55;5.43;;;4.93;;
48945;SDS011;34999;50.940;3.998;2023-06-10T10:25:27;6.43;;;5.32;;
48945;SDS011;34999;50.940;3.998;2023-06-10T10:27:59;6.32;;;4.95;;
48945;SDS011;34999;50.940;3.998;2023-06-10T10:30:34;4.65;;;4.35;;
48945;SDS011;34999;50.940;3.998;2023-06-10T10:33:09;4.88;;;4.60;;
48945;SDS011;34999;50.940;3.998;2023-06-10T10:35:45;5.15;;;4.85;;
48945;SDS011;34999;50.940;3.998;2023-06-10T10:38:15;4.95;;;4.63;;
48945;SDS011;34999;50.940;3.998;2023-06-10T10:40:43;4.93;;;4.47;;
48945;SDS011;34999;50.940;3.998;2023-06-10T10:43:13;6.65;;;4.32;;
48945;SDS011;34999;50.940;3.998;2023-06-10T10:45:44;5.07;;;4.80;;
48945;SDS011;34999;50.940;3.998;2023-06-10T10:48:14;5.45;;;5.05;;
48945;SDS011;34999;50.940;3.998;2023-06-10T10:50:43;4.57;;;4.22;;
48945;SDS011;34999;50.940;3.998;2023-06-10T10:53:24;6.30;;;4.57;;
48945;SDS011;34999;50.940;3.998;2023-06-10T10:55:59;5.10;;;4.80;;
48945;SDS011;34999;50.940;3.998;2023-06-10T10:58:31;4.85;;;4.45;;
48945;SDS011;34999;50.940;3.998;2023-06-10T11:01:01;4.20;;;4.00;;
48945;SDS011;34999;50.940;3.998;2023-06-10T11:03:43;4.85;;;4.28;;
48945;SDS011;34999;50.940;3.998;2023-06-10T11:06:14;4.20;;;3.97;;
48945;SDS011;34999;50.940;3.998;2023-06-10T11:08:47;4.43;;;4.13;;
48945;SDS011;34999;50.940;3.998;2023-06-10T11:11:17;4.60;;;4.20;;
48945;SDS011;34999;50.940;3.998;2023-06-10T11:14:05;4.63;;;4.30;;
48945;SDS011;34999;50.940;3.998;2023-06-10T11:16:39;4.63;;;4.32;;
48945;SDS011;34999;50.940;3.998;2023-06-10T11:19:10;7.43;;;4.28;;
48945;SDS011;34999;50.940;3.998;2023-06-10T11:22:00;4.55;;;4.25;;
48945;SDS011;34999;50.940;3.998;2023-06-10T11:24:29;6.55;;;4.82;;
48945;SDS011;34999;50.940;3.998;2023-06-10T11:27:20;4.68;;;4.28;;
48945;SDS011;34999;50.940;3.998;2023-06-10T11:33:36;4.70;;;4.40;;
48945;SDS011;34999;50.940;3.998;2023-06-10T11:36:08;4.78;;;4.40;;
48945;SDS011;34999;50.940;3.998;2023-06-10T11:38:36;4.47;;;4.28;;
48945;SDS011;34999;50.940;3.998;2023-06-10T11:41:05;4.00;;;3.80;;
48945;SDS011;34999;50.940;3.998;2023-06-10T11:43:34;6.82;;;4.05;;
48945;SDS011;34999;50.940;3.998;2023-06-10T11:46:02;7.95;;;4.50;;
48945;SDS011;34999;50.940;3.998;2023-06-10T11:48:30;4.93;;;4.30;;
48945;SDS011;34999;50.940;3.998;2023-06-10T11:51:00;4.97;;;4.60;;
48945;SDS011;34999;50.940;3.998;2023-06-10T11:53:30;5.78;;;4.68;;
48945;SDS011;34999;50.940;3.998;2023-06-10T11:55:58;4.90;;;4.50;;
48945;SDS011;34999;50.940;3.998;2023-06-10T11:58:26;6.93;;;4.55;;
48945;SDS011;34999;50.940;3.998;2023-06-10T12:00:55;5.78;;;4.60;;
48945;SDS011;34999;50.940;3.998;2023-06-10T12:03:24;5.72;;;4.20;;
48945;SDS011;34999;50.940;3.998;2023-06-10T12:05:56;4.97;;;4.60;;
48945;SDS011;34999;50.940;3.998;2023-06-10T12:08:26;5.03;;;4.63;;
48945;SDS011;34999;50.940;3.998;2023-06-10T12:10:56;5.93;;;5.25;;
48945;SDS011;34999;50.940;3.998;2023-06-10T12:13:26;6.15;;;4.53;;
48945;SDS011;34999;50.940;3.998;2023-06-10T12:15:55;4.57;;;4.28;;
48945;SDS011;34999;50.940;3.998;2023-06-10T12:18:35;5.00;;;4.68;;
48945;SDS011;34999;50.940;3.998;2023-06-10T12:21:03;5.07;;;4.68;;
48945;SDS011;34999;50.940;3.998;2023-06-10T12:24:02;4.68;;;4.40;;
48945;SDS011;34999;50.940;3.998;2023-06-10T12:26:40;7.22;;;4.80;;
48945;SDS011;34999;50.940;3.998;2023-06-10T12:29:18;4.85;;;4.50;;
48945;SDS011;34999;50.940;3.998;2023-06-10T12:31:55;5.35;;;4.95;;
48945;SDS011;34999;50.940;3.998;2023-06-10T12:34:29;5.50;;;4.90;;
48945;SDS011;34999;50.940;3.998;2023-06-10T12:37:02;5.53;;;4.88;;
48945;SDS011;34999;50.940;3.998;2023-06-10T12:42:41;6.65;;;4.88;;
48945;SDS011;34999;50.940;3.998;2023-06-10T12:48:21;4.97;;;4.68;;
48945;SDS011;34999;50.940;3.998;2023-06-10T12:50:55;6.50;;;4.82;;
48945;SDS011;34999;50.940;3.998;2023-06-10T12:57:05;5.15;;;4.78;;
48945;SDS011;34999;50.940;3.998;2023-06-10T12:59:35;5.35;;;4.82;;
48945;SDS011;34999;50.940;3.998;2023-06-10T13:02:03;5.18;;;4.68;;
48945;SDS011;34999;50.940;3.998;2023-06-10T13:04:32;5.57;;;5.10;;
48945;SDS011;34999;50.940;3.998;2023-06-10T13:07:00;5.63;;;5.13;;
48945;SDS011;34999;50.940;3.998;2023-06-10T13:09:28;8.95;;;5.03;;
48945;SDS011;34999;50.940;3.998;2023-06-10T13:11:57;5.45;;;5.05;;
48945;SDS011;34999;50.940;3.998;2023-06-10T13:14:26;5.75;;;5.35;;
48945;SDS011;34999;50.940;3.998;2023-06-10T13:16:56;5.50;;;5.10;;
48945;SDS011;34999;50.940;3.998;2023-06-10T13:19:24;5.95;;;5.35;;
48945;SDS011;34999;50.940;3.998;2023-06-10T13:21:53;5.05;;;4.65;;
48945;SDS011;34999;50.940;3.998;2023-06-10T13:24:21;6.45;;;5.15;;
48945;SDS011;34999;50.940;3.998;2023-06-10T13:26:49;6.32;;;5.07;;
48945;SDS011;34999;50.940;3.998;2023-06-10T13:29:18;5.78;;;5.25;;
48945;SDS011;34999;50.940;3.998;2023-06-10T13:31:46;7.88;;;5.10;;
48945;SDS011;34999;50.940;3.998;2023-06-10T13:34:16;5.50;;;5.00;;
48945;SDS011;34999;50.940;3.998;2023-06-10T13:36:44;6.10;;;5.57;;
48945;SDS011;34999;50.940;3.998;2023-06-10T13:39:13;8.27;;;5.38;;
48945;SDS011;34999;50.940;3.998;2023-06-10T13:41:42;7.38;;;4.82;;
48945;SDS011;34999;50.940;3.998;2023-06-10T13:44:10;5.72;;;5.22;;
48945;SDS011;34999;50.940;3.998;2023-06-10T13:46:38;5.63;;;5.18;;
48945;SDS011;34999;50.940;3.998;2023-06-10T13:49:06;8.07;;;5.50;;
48945;SDS011;34999;50.940;3.998;2023-06-10T13:51:36;6.00;;;5.50;;
48945;SDS011;34999;50.940;3.998;2023-06-10T13:54:05;5.45;;;4.97;;
48945;SDS011;34999;50.940;3.998;2023-06-10T13:56:33;5.38;;;4.97;;
48945;SDS011;34999;50.940;3.998;2023-06-10T13:59:04;4.90;;;4.43;;
48945;SDS011;34999;50.940;3.998;2023-06-10T14:01:32;5.53;;;5.22;;
48945;SDS011;34999;50.940;3.998;2023-06-10T14:04:00;7.03;;;5.30;;
48945;SDS011;34999;50.940;3.998;2023-06-10T14:06:29;5.80;;;5.13;;
48945;SDS011;34999;50.940;3.998;2023-06-10T14:09:00;5.75;;;5.25;;
48945;SDS011;34999;50.940;3.998;2023-06-10T14:11:28;7.80;;;5.63;;
48945;SDS011;34999;50.940;3.998;2023-06-10T14:14:00;8.20;;;5.20;;
48945;SDS011;34999;50.940;3.998;2023-06-10T14:16:28;5.50;;;5.03;;
48945;SDS011;34999;50.940;3.998;2023-06-10T14:18:57;5.57;;;5.15;;
48945;SDS011;34999;50.940;3.998;2023-06-10T14:21:25;5.95;;;5.07;;
48945;SDS011;34999;50.940;3.998;2023-06-10T14:23:54;6.00;;;5.50;;
48945;SDS011;34999;50.940;3.998;2023-06-10T14:26:23;7.40;;;5.20;;
48945;SDS011;34999;50.940;3.998;2023-06-10T14:28:52;5.60;;;5.20;;
48945;SDS011;34999;50.940;3.998;2023-06-10T14:31:21;5.90;;;5.50;;
48945;SDS011;34999;50.940;3.998;2023-06-10T14:33:49;5.63;;;4.85;;
48945;SDS011;34999;50.940;3.998;2023-06-10T14:36:18;12.63;;;5.82;;
48945;SDS011;34999;50.940;3.998;2023-06-10T14:38:46;5.70;;;5.22;;
48945;SDS011;34999;50.940;3.998;2023-06-10T14:41:15;6.97;;;5.20;;
48945;SDS011;34999;50.940;3.998;2023-06-10T14:43:45;5.65;;;5.20;;
48945;SDS011;34999;50.940;3.998;2023-06-10T14:46:13;7.38;;;4.55;;
48945;SDS011;34999;50.940;3.998;2023-06-10T14:48:41;5.68;;;5.15;;
48945;SDS011;34999;50.940;3.998;2023-06-10T14:51:10;5.22;;;4.82;;
48945;SDS011;34999;50.940;3.998;2023-06-10T14:56:45;5.10;;;4.53;;
48945;SDS011;34999;50.940;3.998;2023-06-10T14:59:15;5.10;;;4.80;;
48945;SDS011;34999;50.940;3.998;2023-06-10T15:01:43;8.18;;;5.43;;
48945;SDS011;34999;50.940;3.998;2023-06-10T15:04:11;7.10;;;5.68;;
48945;SDS011;34999;50.940;3.998;2023-06-10T15:06:40;7.78;;;4.85;;
48945;SDS011;34999;50.940;3.998;2023-06-10T15:09:09;5.72;;;5.30;;
48945;SDS011;34999;50.940;3.998;2023-06-10T15:11:38;5.68;;;5.07;;
48945;SDS011;34999;50.940;3.998;2023-06-10T15:14:06;5.68;;;5.20;;
48945;SDS011;34999;50.940;3.998;2023-06-10T15:16:35;6.47;;;5.57;;
48945;SDS011;34999;50.940;3.998;2023-06-10T15:19:04;5.60;;;5.18;;
48945;SDS011;34999;50.940;3.998;2023-06-10T15:21:34;6.50;;;5.80;;
48945;SDS011;34999;50.940;3.998;2023-06-10T15:24:03;6.05;;;5.60;;
48945;SDS011;34999;50.940;3.998;2023-06-10T15:26:32;11.82;;;5.47;;
48945;SDS011;34999;50.940;3.998;2023-06-10T15:29:00;5.75;;;5.10;;
48945;SDS011;34999;50.940;3.998;2023-06-10T15:31:30;6.80;;;5.20;;
48945;SDS011;34999;50.940;3.998;2023-06-10T15:34:01;12.45;;;5.70;;
48945;SDS011;34999;50.940;3.998;2023-06-10T15:36:30;6.10;;;5.60;;
48945;SDS011;34999;50.940;3.998;2023-06-10T15:39:00;6.30;;;5.72;;
48945;SDS011;34999;50.940;3.998;2023-06-10T15:41:30;5.65;;;4.97;;
48945;SDS011;34999;50.940;3.998;2023-06-10T15:43:58;5.45;;;4.95;;
48945;SDS011;34999;50.940;3.998;2023-06-10T15:46:27;8.00;;;5.22;;
48945;SDS011;34999;50.940;3.998;2023-06-10T15:48:56;5.80;;;5.30;;
48945;SDS011;34999;50.940;3.998;2023-06-10T15:51:26;8.10;;;5.93;;
48945;SDS011;34999;50.940;3.998;2023-06-10T15:53:54;6.70;;;5.68;;
48945;SDS011;34999;50.940;3.998;2023-06-10T15:56:23;5.68;;;5.13;;
48945;SDS011;34999;50.940;3.998;2023-06-10T15:58:51;5.90;;;5.43;;
48945;SDS011;34999;50.940;3.998;2023-06-10T16:01:20;5.70;;;5.20;;
48945;SDS011;34999;50.940;3.998;2023-06-10T16:03:48;6.05;;;5.03;;
48945;SDS011;34999;50.940;3.998;2023-06-10T16:06:16;5.38;;;4.97;;
48945;SDS011;34999;50.940;3.998;2023-06-10T16:08:46;5.85;;;5.28;;
48945;SDS011;34999;50.940;3.998;2023-06-10T16:11:15;5.72;;;5.20;;
48945;SDS011;34999;50.940;3.998;2023-06-10T16:13:43;5.97;;;5.40;;
48945;SDS011;34999;50.940;3.998;2023-06-10T16:16:11;5.53;;;5.05;;
48945;SDS011;34999;50.940;3.998;2023-06-10T16:18:40;5.78;;;5.38;;
48945;SDS011;34999;50.940;3.998;2023-06-10T16:21:08;9.50;;;5.60;;